x

Orange Beach - 44 Nm Se Of Mobile, Al (42012) Wave Buoy

6:50am - Sun 28th Aug 2016 All times are CDT. -5 hours from GMT.

  • Sig Wave height 2.6ft
  • Swell Direction
  • Peak Period 5s
  • Average Period 4s
  • Wind
    16mph, 18mph gusts
  • Sea Temp 85°f
  • Air Temp 84°f
  • Sea Pressure 1015.2mb
  • Orange Beach - 44 Nm Se Of Mobile, Al
  • Orange Beach - 44 Nm Se Of Mobile, Al

More Historic Weather Station data

Upgrade to MSW Pro to gain access to the past 30 days of data for over 8000 Wavebouys and Weather Stations around the globe.

Join Pro

Comparision Forecast

View Surf forecast
   
Sun 08/28 6:50am 2.5ft 5s 4s 16 18 mph 1015.2mb 85f 84f
5:50am 2.5ft 6s 4s 16 18 mph 1014.8mb 85f 84f
4:50am 2.5ft 6s 4s 11 13 mph 1014.4mb 85f 82f
3:50am 2.5ft 6s 5s 11 13 mph 1014.2mb 85f 82f
2:50am 2.5ft 6s 5s 11 13 mph 1014.4mb 85f 82f
1:50am 2ft 6s 5s 11
mph
1014.9mb 85f 83f
12:50am 2ft 6s 5s 7 9 mph 1015.1mb 85f 83f
Sat 08/27 11:50pm 2.5ft 6s 5s 7 9 mph 1015.6mb 85f 83f
10:50pm 2.5ft 5s 4s 9
mph
1015.8mb 85f 83f
9:50pm 2.5ft 6s 4s 7 9 mph 1015.7mb 85f 83f
8:50pm 2.5ft 5s 4s 9 11 mph 1015.5mb 85f 83f
7:50pm 2.5ft 5s 4s 11 13 mph 1014.5mb 85f 83f
6:50pm 2.5ft 6s 4s 11 13 mph 1013.8mb 85f 83f
5:50pm 2.5ft 6s 4s 9 11 mph 1013.8mb 85f 81f
4:50pm 2.5ft 6s 4s 9 11 mph 1014.4mb 85f 81f
3:50pm 3ft 6s 4s 18 20 mph 1014.7mb 85f 79f
2:50pm 3.5ft 6s 4s 18 22 mph 1015.4mb 85f 78f
1:50pm 3.5ft 6s 4s 20 25 mph 1015.6mb 86f 79f
12:50pm 3ft 6s 4s 18 22 mph 1015.5mb 86f 81f
11:50am 3ft 6s 4s 16 18 mph 1015.7mb 86f 83f
10:50am 3ft 5s 4s 16 18 mph 1015.1mb 86f 83f
9:50am 3ft 5s 4s 16 20 mph 1014.7mb 86f 82f
8:50am 3ft 5s 4s 16 20 mph 1015.5mb 86f 81f
7:50am 3ft 5s 4s 11 13 mph 1015.4mb 86f 83f
6:50am 2.5ft 6s 4s 11 18 mph 1015.1mb 86f 81f
5:50am 2.5ft 6s 4s 13 16 mph 1014.5mb 86f 83f
4:50am 2.5ft 6s 4s 9 13 mph 1014.6mb 86f 85f
3:50am 2.5ft 6s 4s 11 13 mph 1014.6mb 86f 85f
2:50am 2.5ft 6s 4s 9 11 mph 1014.4mb 86f 85f
1:50am 2.5ft 6s 4s 9 11 mph 1014.3mb 86f 85f
12:50am 2.5ft 6s 4s 11 13 mph 1014.9mb 86f 85f
Fri 08/26 11:50pm 2.5ft 6s 4s 13 16 mph 1015.1mb 86f 85f
10:50pm 2.5ft 5s 4s 11 13 mph 1015.4mb 86f 85f
9:50pm 2.5ft 4s 4s 11 13 mph 1015.1mb 86f 85f
8:50pm 2.5ft 5s 4s 11 13 mph 1015.1mb 86f 85f
7:50pm 2.5ft 5s 4s 11 13 mph 1015.1mb 86f 85f
6:50pm 2.5ft 5s 4s 13 16 mph 1015.1mb 86f 85f
5:50pm 2.5ft 5s 4s 13 16 mph 1014.8mb 86f 85f
4:50pm 2.5ft 5s 4s 11 13 mph 1015mb 86f 85f
3:50pm 2.5ft 5s 4s 13 16 mph 1015.2mb 86f 84f
2:50pm 3ft 5s 4s 16 18 mph 1015.7mb 86f 84f
1:50pm 3ft 5s 4s 16 18 mph 1016.2mb 86f 84f
12:50pm 3ft 5s 4s 16 20 mph 1016.7mb 86f 84f
11:50am 3ft 5s 4s 16 20 mph 1016.9mb 86f 84f
10:50am 3ft 5s 4s 16 18 mph 1017mb 86f 85f
9:50am 3ft 5s 4s 13 16 mph 1017.1mb 86f 85f
8:50am 3.5ft 5s 4s 16 18 mph 1016.6mb 86f 85f
7:50am 3ft 6s 4s 16 18 mph 1016.8mb 86f 85f
6:50am 2.5ft 6s 4s 16 18 mph 1016.4mb 86f 85f
5:50am 2.5ft 6s 4s 13 18 mph 1015.8mb 86f 85f
4:50am 2.5ft 6s 4s 11 13 mph 1015.6mb 86f 85f
3:50am 2.5ft 7s 5s 9 11 mph 1015.8mb 86f 85f
2:50am 2.5ft 6s 5s 7 9 mph 1016.4mb 86f 85f
1:50am 2.5ft 6s 4s 7 9 mph 1017mb 86f 85f
12:50am 2.5ft 7s 4s 9
mph
1017.3mb 86f 86f
Thu 08/25 11:50pm 2.5ft 5s 4s 9 11 mph 1017.4mb 86f 87f
10:50pm 2ft 5s 4s 16 18 mph 1017.2mb 86f 87f
9:50pm 2ft 4s 4s 13 16 mph 1017.4mb 86f 87f
8:50pm 2ft 5s 4s  -  2 mph 1017.6mb 86f 86f
7:50pm 2.5ft 5s 4s 7
mph
1017.2mb 86f 86f
6:50pm 2.5ft 5s 4s 9 11 mph 1016.5mb 86f 86f
5:50pm 2.5ft 5s 4s 11 13 mph 1016mb 87f 86f
4:50pm 3ft 6s 4s 16 18 mph 1016.1mb 86f 86f
3:50pm 3ft 4s 4s 13 16 mph 1016.7mb 86f 85f
2:50pm 3ft 5s 4s 16 20 mph 1017.2mb 86f 85f
1:50pm 2.5ft 4s 4s 18 22 mph 1018.1mb 86f 85f
12:50pm 2.5ft 5s 4s 16 18 mph 1019mb 87f 85f
11:50am 2.5ft 4s 4s 18 20 mph 1019.7mb 87f 85f
10:50am 2.5ft 3s 3s 18 20 mph 1020mb 87f 85f
9:50am 2ft 3s 3s 18 20 mph 1019.7mb 87f 84f
8:50am 2ft 5s 3s 16 18 mph 1019.7mb 87f 85f
7:50am 2ft 4s 3s 13 16 mph 1019.2mb 87f 84f
6:50am 1.6ft 5s 3s 13 16 mph 1019.1mb 87f 84f
5:50am 1.3ft 5s 4s 13 16 mph 1018.5mb 87f 84f
4:50am 1.3ft 5s 4s 7 9 mph 1018.2mb 87f 85f
3:50am 1.3ft 5s 4s 9
mph
1017.8mb 87f 85f
2:50am 1.3ft 5s 4s 7
mph
1017.8mb 87f 85f
1:50am 1.6ft 4s 4s 7
mph
1018.3mb 87f 85f
12:50am 1.6ft 4s 4s 7 9 mph 1018.9mb 87f 85f
Wed 08/24 11:50pm 1.6ft 5s 4s 7 9 mph 1019.2mb 87f 85f
9:50pm 2ft 5s 4s 11 13 mph 1019.7mb 87f 86f
8:50pm 1.6ft 5s 4s 11 13 mph 1019.7mb 87f 86f
7:50pm 1.6ft 4s 4s 11 13 mph 1019.4mb 87f 86f
6:50pm 1.6ft 4s 3s 13 16 mph 1018.8mb 87f 85f
5:50pm 1.6ft 4s 3s 11 13 mph 1019mb 87f 86f
4:50pm 1.6ft 4s 3s 13 16 mph 1019.1mb 87f 86f
3:50pm 1.6ft 4s 3s 13 16 mph 1019mb 87f 85f
2:50pm 1.6ft 4s 3s 13 16 mph 1019.7mb 87f 85f
1:50pm 1.6ft 4s 3s 13 16 mph 1020.3mb 87f 85f
12:50pm 1.6ft 4s 3s 13 18 mph 1020.8mb 88f 85f